Rentz, Georgia
Current Conditions -  °F | °C
As of 4:35 PM on Wednesday 17 Dec 2014 (Local Time) from KDBN Reporting Station
Clear Clear  
Wind Chill: 16°   Ceiling: Unl
Heat Index: 16°   Visibility: 10mi
Dew Point:   Wind: 5mph
Humidity: 42%   Direction: 290°WNW
Pressure: 30.12"   Gusts: NA
Location:  32.38°N, 82.99°W
Report Text: KDBN 172135Z AUTO 29004KT 10SM CLR 16/03 A3012 RMK AO2
Loading
Personal Weather Stations






























Interactive Weather Map New forecast layout! Learn more

10-Day Weather Forecast

Advertisements
Track Severe Weather on mobile